Terminal Aerodrome Forecast
Issued by NWS

Home | Current Version | Previous Version | Text Only | Print | Product List | Glossary On
Versions: 1 2 3 4 5 6 7 8 9 10 11 12 13 14 15 16
250
FTUS45 KTFX 051130
TAFLWT
TAF
KLWT 051130Z 0512/0612 29012G22KT 6SM -SN BR OVC008
     FM051600 29014KT P6SM OVC035
      TEMPO 0516/0520 2SM -SN BR OVC010
     FM060200 29006KT 3SM BR VCSH OVC015 PROB30 0606/0612 1SM -SN BR
      OVC007=

USA.gov is the U.S. government's official web portal to all federal, state and local government web resources and services.